sensor_id;sensor_type;location;lat;lon;timestamp;temperature;humidity
13796;SHT30;40911;51.552;9.874;2023-03-12T00:01:18;-2.55;88.94
13796;SHT30;40911;51.552;9.874;2023-03-12T00:03:40;-2.63;89.07
13796;SHT30;40911;51.552;9.874;2023-03-12T00:06:01;-2.92;90.27
13796;SHT30;40911;51.552;9.874;2023-03-12T00:08:23;-2.87;90.51
13796;SHT30;40911;51.552;9.874;2023-03-12T00:10:44;-2.79;90.06
13796;SHT30;40911;51.552;9.874;2023-03-12T00:13:08;-2.82;89.57
13796;SHT30;40911;51.552;9.874;2023-03-12T00:15:30;-2.73;89.22
13796;SHT30;40911;51.552;9.874;2023-03-12T00:17:52;-2.83;89.85
13796;SHT30;40911;51.552;9.874;2023-03-12T00:20:14;-2.83;89.47
13796;SHT30;40911;51.552;9.874;2023-03-12T00:22:36;-2.87;89.58
13796;SHT30;40911;51.552;9.874;2023-03-12T00:24:57;-2.86;89.66
13796;SHT30;40911;51.552;9.874;2023-03-12T00:27:19;-2.97;89.99
13796;SHT30;40911;51.552;9.874;2023-03-12T00:29:42;-2.87;89.59
13796;SHT30;40911;51.552;9.874;2023-03-12T00:32:05;-2.86;89.89
13796;SHT30;40911;51.552;9.874;2023-03-12T00:34:27;-2.87;89.73
13796;SHT30;40911;51.552;9.874;2023-03-12T00:36:48;-3.04;90.67
13796;SHT30;40911;51.552;9.874;2023-03-12T00:39:10;-2.93;90.10
13796;SHT30;40911;51.552;9.874;2023-03-12T00:41:31;-2.99;90.29
13796;SHT30;40911;51.552;9.874;2023-03-12T00:43:53;-2.87;89.67
13796;SHT30;40911;51.552;9.874;2023-03-12T00:46:16;-2.87;90.12
13796;SHT30;40911;51.552;9.874;2023-03-12T00:48:39;-2.94;90.40
13796;SHT30;40911;51.552;9.874;2023-03-12T00:51:00;-2.99;90.23
13796;SHT30;40911;51.552;9.874;2023-03-12T00:53:22;-2.99;90.24
13796;SHT30;40911;51.552;9.874;2023-03-12T00:55:44;-2.97;90.07
13796;SHT30;40911;51.552;9.874;2023-03-12T00:58:05;-2.92;89.89
13796;SHT30;40911;51.552;9.874;2023-03-12T01:00:27;-2.89;89.94
13796;SHT30;40911;51.552;9.874;2023-03-12T01:02:50;-3.04;90.03
13796;SHT30;40911;51.552;9.874;2023-03-12T01:05:12;-2.93;89.79
13796;SHT30;40911;51.552;9.874;2023-03-12T01:07:34;-3.00;89.95
13796;SHT30;40911;51.552;9.874;2023-03-12T01:09:55;-3.01;90.17
13796;SHT30;40911;51.552;9.874;2023-03-12T01:12:17;-3.10;90.80
13796;SHT30;40911;51.552;9.874;2023-03-12T01:14:38;-3.04;90.26
13796;SHT30;40911;51.552;9.874;2023-03-12T01:17:00;-3.13;90.55
13796;SHT30;40911;51.552;9.874;2023-03-12T01:19:23;-3.04;90.03
13796;SHT30;40911;51.552;9.874;2023-03-12T01:21:45;-3.01;89.85
13796;SHT30;40911;51.552;9.874;2023-03-12T01:24:07;-3.17;90.14
13796;SHT30;40911;51.552;9.874;2023-03-12T01:26:28;-3.21;90.49
13796;SHT30;40911;51.552;9.874;2023-03-12T01:28:50;-3.14;90.24
13796;SHT30;40911;51.552;9.874;2023-03-12T01:31:13;-3.13;90.47
13796;SHT30;40911;51.552;9.874;2023-03-12T01:33:35;-3.21;90.99
13796;SHT30;40911;51.552;9.874;2023-03-12T01:35:58;-3.18;90.17
13796;SHT30;40911;51.552;9.874;2023-03-12T01:38:20;-3.28;90.82
13796;SHT30;40911;51.552;9.874;2023-03-12T01:40:42;-3.18;90.77
13796;SHT30;40911;51.552;9.874;2023-03-12T01:43:25;-3.18;90.33
13796;SHT30;40911;51.552;9.874;2023-03-12T01:46:01;-3.24;91.04
13796;SHT30;40911;51.552;9.874;2023-03-12T01:48:24;-3.20;89.93
13796;SHT30;40911;51.552;9.874;2023-03-12T01:50:46;-3.38;91.09
13796;SHT30;40911;51.552;9.874;2023-03-12T01:53:09;-3.39;91.21
13796;SHT30;40911;51.552;9.874;2023-03-12T01:55:30;-3.27;91.17
13796;SHT30;40911;51.552;9.874;2023-03-12T01:57:52;-3.25;90.99
13796;SHT30;40911;51.552;9.874;2023-03-12T02:00:19;-3.13;90.07
13796;SHT30;40911;51.552;9.874;2023-03-12T02:02:42;-3.31;90.99
13796;SHT30;40911;51.552;9.874;2023-03-12T02:05:10;-3.21;90.55
13796;SHT30;40911;51.552;9.874;2023-03-12T02:07:34;-3.21;90.68
13796;SHT30;40911;51.552;9.874;2023-03-12T02:09:57;-3.21;91.09
13796;SHT30;40911;51.552;9.874;2023-03-12T02:12:19;-3.14;90.86
13796;SHT30;40911;51.552;9.874;2023-03-12T02:14:40;-3.11;90.42
13796;SHT30;40911;51.552;9.874;2023-03-12T02:17:03;-3.10;90.27
13796;SHT30;40911;51.552;9.874;2023-03-12T02:19:30;-3.13;90.25
13796;SHT30;40911;51.552;9.874;2023-03-12T02:21:52;-3.14;90.43
13796;SHT30;40911;51.552;9.874;2023-03-12T02:24:19;-3.17;90.29
13796;SHT30;40911;51.552;9.874;2023-03-12T02:26:43;-3.08;90.58
13796;SHT30;40911;51.552;9.874;2023-03-12T02:29:06;-3.07;90.81
13796;SHT30;40911;51.552;9.874;2023-03-12T02:31:32;-3.07;89.91
13796;SHT30;40911;51.552;9.874;2023-03-12T02:33:57;-3.20;90.28
13796;SHT30;40911;51.552;9.874;2023-03-12T02:36:21;-3.17;90.42
13796;SHT30;40911;51.552;9.874;2023-03-12T02:38:44;-3.25;90.50
13796;SHT30;40911;51.552;9.874;2023-03-12T02:41:12;-3.34;91.89
13796;SHT30;40911;51.552;9.874;2023-03-12T02:43:36;-3.25;91.39
13796;SHT30;40911;51.552;9.874;2023-03-12T02:45:58;-3.36;91.51
13796;SHT30;40911;51.552;9.874;2023-03-12T02:48:20;-3.24;90.59
13796;SHT30;40911;51.552;9.874;2023-03-12T02:50:42;-3.27;90.97
13796;SHT30;40911;51.552;9.874;2023-03-12T02:53:03;-3.20;90.70
13796;SHT30;40911;51.552;9.874;2023-03-12T02:55:25;-3.11;91.09
13796;SHT30;40911;51.552;9.874;2023-03-12T02:57:46;-3.21;90.71
13796;SHT30;40911;51.552;9.874;2023-03-12T03:00:11;-3.28;91.22
13796;SHT30;40911;51.552;9.874;2023-03-12T03:02:34;-3.21;90.91
13796;SHT30;40911;51.552;9.874;2023-03-12T03:04:56;-3.30;90.74
13796;SHT30;40911;51.552;9.874;2023-03-12T03:07:18;-3.32;91.30
13796;SHT30;40911;51.552;9.874;2023-03-12T03:09:39;-3.31;91.07
13796;SHT30;40911;51.552;9.874;2023-03-12T03:12:01;-3.22;90.68
13796;SHT30;40911;51.552;9.874;2023-03-12T03:14:22;-3.11;89.95
13796;SHT30;40911;51.552;9.874;2023-03-12T03:16:45;-3.07;89.88
13796;SHT30;40911;51.552;9.874;2023-03-12T03:19:07;-3.18;90.97
13796;SHT30;40911;51.552;9.874;2023-03-12T03:21:30;-3.17;91.15
13796;SHT30;40911;51.552;9.874;2023-03-12T03:23:52;-3.15;91.13
13796;SHT30;40911;51.552;9.874;2023-03-12T03:26:17;-3.07;90.71
13796;SHT30;40911;51.552;9.874;2023-03-12T03:28:39;-3.10;91.14
13796;SHT30;40911;51.552;9.874;2023-03-12T03:31:01;-2.99;91.00
13796;SHT30;40911;51.552;9.874;2023-03-12T03:36:40;-2.90;91.74
13796;SHT30;40911;51.552;9.874;2023-03-12T03:39:02;-2.80;91.40
13796;SHT30;40911;51.552;9.874;2023-03-12T03:41:24;-2.76;91.61
13796;SHT30;40911;51.552;9.874;2023-03-12T03:43:50;-2.66;91.75
13796;SHT30;40911;51.552;9.874;2023-03-12T03:46:13;-2.66;91.53
13796;SHT30;40911;51.552;9.874;2023-03-12T03:48:35;-2.56;90.85
13796;SHT30;40911;51.552;9.874;2023-03-12T03:50:58;-2.63;90.72
13796;SHT30;40911;51.552;9.874;2023-03-12T03:53:22;-2.59;90.62
13796;SHT30;40911;51.552;9.874;2023-03-12T03:55:44;-2.56;90.75
13796;SHT30;40911;51.552;9.874;2023-03-12T03:58:06;-2.48;90.92
13796;SHT30;40911;51.552;9.874;2023-03-12T04:00:27;-2.44;90.72
13796;SHT30;40911;51.552;9.874;2023-03-12T04:02:49;-2.40;90.65
13796;SHT30;40911;51.552;9.874;2023-03-12T04:05:11;-2.40;90.26
13796;SHT30;40911;51.552;9.874;2023-03-12T04:07:32;-2.38;90.38
13796;SHT30;40911;51.552;9.874;2023-03-12T04:09:55;-2.42;90.60
13796;SHT30;40911;51.552;9.874;2023-03-12T04:12:17;-2.42;90.71
13796;SHT30;40911;51.552;9.874;2023-03-12T04:14:39;-2.45;90.56
13796;SHT30;40911;51.552;9.874;2023-03-12T04:17:01;-2.44;90.72
13796;SHT30;40911;51.552;9.874;2023-03-12T04:19:23;-2.38;90.86
13796;SHT30;40911;51.552;9.874;2023-03-12T04:21:44;-2.40;90.53
13796;SHT30;40911;51.552;9.874;2023-03-12T04:24:07;-2.40;90.48
13796;SHT30;40911;51.552;9.874;2023-03-12T04:26:34;-2.37;90.49
13796;SHT30;40911;51.552;9.874;2023-03-12T04:28:56;-2.41;90.51
13796;SHT30;40911;51.552;9.874;2023-03-12T04:31:17;-2.38;91.02
13796;SHT30;40911;51.552;9.874;2023-03-12T04:33:39;-2.38;90.93
13796;SHT30;40911;51.552;9.874;2023-03-12T04:36:01;-2.41;90.73
13796;SHT30;40911;51.552;9.874;2023-03-12T04:38:24;-2.38;90.39
13796;SHT30;40911;51.552;9.874;2023-03-12T04:40:56;-2.35;90.63
13796;SHT30;40911;51.552;9.874;2023-03-12T04:43:19;-2.42;90.29
13796;SHT30;40911;51.552;9.874;2023-03-12T04:45:41;-2.42;90.48
13796;SHT30;40911;51.552;9.874;2023-03-12T04:48:03;-2.44;90.53
13796;SHT30;40911;51.552;9.874;2023-03-12T04:50:24;-2.42;90.71
13796;SHT30;40911;51.552;9.874;2023-03-12T04:52:46;-2.38;90.26
13796;SHT30;40911;51.552;9.874;2023-03-12T04:55:08;-2.42;90.17
13796;SHT30;40911;51.552;9.874;2023-03-12T04:57:29;-2.37;90.29
13796;SHT30;40911;51.552;9.874;2023-03-12T04:59:53;-2.40;90.13
13796;SHT30;40911;51.552;9.874;2023-03-12T05:02:14;-2.42;90.11
13796;SHT30;40911;51.552;9.874;2023-03-12T05:04:36;-2.44;90.21
13796;SHT30;40911;51.552;9.874;2023-03-12T05:06:57;-2.42;90.32
13796;SHT30;40911;51.552;9.874;2023-03-12T05:09:19;-2.46;90.33
13796;SHT30;40911;51.552;9.874;2023-03-12T05:11:40;-2.44;90.75
13796;SHT30;40911;51.552;9.874;2023-03-12T05:14:02;-2.45;90.73
13796;SHT30;40911;51.552;9.874;2023-03-12T05:16:25;-2.49;90.66
13796;SHT30;40911;51.552;9.874;2023-03-12T05:18:47;-2.52;90.74
13796;SHT30;40911;51.552;9.874;2023-03-12T05:21:11;-2.52;90.63
13796;SHT30;40911;51.552;9.874;2023-03-12T05:23:33;-2.48;90.39
13796;SHT30;40911;51.552;9.874;2023-03-12T05:25:55;-2.48;90.36
13796;SHT30;40911;51.552;9.874;2023-03-12T05:28:17;-2.45;90.63
13796;SHT30;40911;51.552;9.874;2023-03-12T05:30:39;-2.46;90.68
13796;SHT30;40911;51.552;9.874;2023-03-12T05:33:02;-2.42;90.62
13796;SHT30;40911;51.552;9.874;2023-03-12T05:35:24;-2.38;90.64
13796;SHT30;40911;51.552;9.874;2023-03-12T05:37:45;-2.40;90.68
13796;SHT30;40911;51.552;9.874;2023-03-12T05:40:09;-2.40;90.53
13796;SHT30;40911;51.552;9.874;2023-03-12T05:42:31;-2.31;90.74
13796;SHT30;40911;51.552;9.874;2023-03-12T05:44:52;-2.28;90.79
13796;SHT30;40911;51.552;9.874;2023-03-12T05:47:14;-2.22;90.75
13796;SHT30;40911;51.552;9.874;2023-03-12T05:49:37;-2.24;90.21
13796;SHT30;40911;51.552;9.874;2023-03-12T05:51:58;-2.11;90.21
13796;SHT30;40911;51.552;9.874;2023-03-12T05:54:20;-2.21;89.99
13796;SHT30;40911;51.552;9.874;2023-03-12T05:56:42;-2.18;90.08
13796;SHT30;40911;51.552;9.874;2023-03-12T05:59:05;-2.18;90.08
13796;SHT30;40911;51.552;9.874;2023-03-12T06:01:28;-2.13;90.17
13796;SHT30;40911;51.552;9.874;2023-03-12T06:03:50;-2.14;90.06
13796;SHT30;40911;51.552;9.874;2023-03-12T06:06:14;-2.07;90.15
13796;SHT30;40911;51.552;9.874;2023-03-12T06:08:35;-2.04;90.29
13796;SHT30;40911;51.552;9.874;2023-03-12T06:10:57;-1.98;90.28
13796;SHT30;40911;51.552;9.874;2023-03-12T06:13:19;-1.98;90.34
13796;SHT30;40911;51.552;9.874;2023-03-12T06:15:41;-1.93;90.40
13796;SHT30;40911;51.552;9.874;2023-03-12T06:18:03;-1.97;90.26
13796;SHT30;40911;51.552;9.874;2023-03-12T06:20:24;-1.98;90.24
13796;SHT30;40911;51.552;9.874;2023-03-12T06:22:47;-1.94;90.41
13796;SHT30;40911;51.552;9.874;2023-03-12T06:25:09;-1.87;90.65
13796;SHT30;40911;51.552;9.874;2023-03-12T06:27:31;-1.79;90.58
13796;SHT30;40911;51.552;9.874;2023-03-12T06:29:53;-1.75;89.96
13796;SHT30;40911;51.552;9.874;2023-03-12T06:32:15;-1.72;89.67
13796;SHT30;40911;51.552;9.874;2023-03-12T06:34:37;-1.59;89.55
13796;SHT30;40911;51.552;9.874;2023-03-12T06:36:59;-1.49;89.34
13796;SHT30;40911;51.552;9.874;2023-03-12T06:39:22;-1.55;89.16
13796;SHT30;40911;51.552;9.874;2023-03-12T06:41:43;-1.42;89.41
13796;SHT30;40911;51.552;9.874;2023-03-12T06:44:05;-1.14;88.66
13796;SHT30;40911;51.552;9.874;2023-03-12T06:46:26;-0.96;87.96
13796;SHT30;40911;51.552;9.874;2023-03-12T06:48:48;-0.77;88.16
13796;SHT30;40911;51.552;9.874;2023-03-12T06:51:12;-0.63;88.11
13796;SHT30;40911;51.552;9.874;2023-03-12T06:53:34;-0.55;88.06
13796;SHT30;40911;51.552;9.874;2023-03-12T06:55:57;-0.58;87.04
13796;SHT30;40911;51.552;9.874;2023-03-12T06:58:19;-0.51;88.11
13796;SHT30;40911;51.552;9.874;2023-03-12T07:00:40;-0.44;87.10
13796;SHT30;40911;51.552;9.874;2023-03-12T07:03:02;-0.44;87.34
13796;SHT30;40911;51.552;9.874;2023-03-12T07:05:24;-0.37;87.13
13796;SHT30;40911;51.552;9.874;2023-03-12T07:07:45;-0.35;87.18
13796;SHT30;40911;51.552;9.874;2023-03-12T07:10:09;-0.24;87.44
13796;SHT30;40911;51.552;9.874;2023-03-12T07:12:32;-0.20;87.09
13796;SHT30;40911;51.552;9.874;2023-03-12T07:14:54;-0.02;86.98
13796;SHT30;40911;51.552;9.874;2023-03-12T07:17:15;-0.04;85.76
13796;SHT30;40911;51.552;9.874;2023-03-12T07:19:37;-0.07;87.24
13796;SHT30;40911;51.552;9.874;2023-03-12T07:21:59;-0.14;86.15
13796;SHT30;40911;51.552;9.874;2023-03-12T07:24:20;-0.09;85.76
13796;SHT30;40911;51.552;9.874;2023-03-12T07:26:42;-0.09;86.21
13796;SHT30;40911;51.552;9.874;2023-03-12T07:29:05;0.00;86.90
13796;SHT30;40911;51.552;9.874;2023-03-12T07:31:26;0.01;86.13
13796;SHT30;40911;51.552;9.874;2023-03-12T07:33:48;0.07;86.10
13796;SHT30;40911;51.552;9.874;2023-03-12T07:36:10;0.10;86.02
13796;SHT30;40911;51.552;9.874;2023-03-12T07:38:33;0.13;86.47
13796;SHT30;40911;51.552;9.874;2023-03-12T07:40:56;0.20;85.91
13796;SHT30;40911;51.552;9.874;2023-03-12T07:43:18;0.23;86.41
13796;SHT30;40911;51.552;9.874;2023-03-12T07:45:40;0.27;86.93
13796;SHT30;40911;51.552;9.874;2023-03-12T07:48:02;0.27;86.54
13796;SHT30;40911;51.552;9.874;2023-03-12T07:50:24;0.37;86.64
13796;SHT30;40911;51.552;9.874;2023-03-12T07:52:45;0.40;86.66
13796;SHT30;40911;51.552;9.874;2023-03-12T07:55:08;0.55;86.26
13796;SHT30;40911;51.552;9.874;2023-03-12T07:57:30;0.62;86.22
13796;SHT30;40911;51.552;9.874;2023-03-12T07:59:51;0.69;86.23
13796;SHT30;40911;51.552;9.874;2023-03-12T08:02:14;0.76;85.82
13796;SHT30;40911;51.552;9.874;2023-03-12T08:04:36;0.79;84.27
13796;SHT30;40911;51.552;9.874;2023-03-12T08:06:57;0.90;84.97
13796;SHT30;40911;51.552;9.874;2023-03-12T08:09:19;0.96;84.59
13796;SHT30;40911;51.552;9.874;2023-03-12T08:11:41;0.93;84.82
13796;SHT30;40911;51.552;9.874;2023-03-12T08:14:03;0.90;84.10
13796;SHT30;40911;51.552;9.874;2023-03-12T08:16:24;0.92;84.54
13796;SHT30;40911;51.552;9.874;2023-03-12T08:18:47;1.00;83.11
13796;SHT30;40911;51.552;9.874;2023-03-12T08:21:08;1.03;84.09
13796;SHT30;40911;51.552;9.874;2023-03-12T08:23:30;1.11;83.84
13796;SHT30;40911;51.552;9.874;2023-03-12T08:25:53;1.13;83.95
13796;SHT30;40911;51.552;9.874;2023-03-12T08:28:15;1.17;83.43
13796;SHT30;40911;51.552;9.874;2023-03-12T08:30:37;1.17;82.83
13796;SHT30;40911;51.552;9.874;2023-03-12T08:32:59;1.20;83.18
13796;SHT30;40911;51.552;9.874;2023-03-12T08:35:24;1.27;82.41
13796;SHT30;40911;51.552;9.874;2023-03-12T08:37:45;1.34;80.84
13796;SHT30;40911;51.552;9.874;2023-03-12T08:40:08;1.42;81.56
13796;SHT30;40911;51.552;9.874;2023-03-12T08:42:32;1.48;81.10
13796;SHT30;40911;51.552;9.874;2023-03-12T08:44:53;1.54;81.73
13796;SHT30;40911;51.552;9.874;2023-03-12T08:47:15;1.68;81.99
13796;SHT30;40911;51.552;9.874;2023-03-12T08:49:38;1.73;81.08
13796;SHT30;40911;51.552;9.874;2023-03-12T08:52:01;1.65;81.12
13796;SHT30;40911;51.552;9.874;2023-03-12T08:54:22;1.55;81.04
13796;SHT30;40911;51.552;9.874;2023-03-12T08:56:44;1.56;80.02
13796;SHT30;40911;51.552;9.874;2023-03-12T08:59:05;1.68;81.49
13796;SHT30;40911;51.552;9.874;2023-03-12T09:01:27;1.69;81.39
13796;SHT30;40911;51.552;9.874;2023-03-12T09:03:48;1.73;81.28
13796;SHT30;40911;51.552;9.874;2023-03-12T09:06:13;1.80;81.55
13796;SHT30;40911;51.552;9.874;2023-03-12T09:08:37;1.70;81.06
13796;SHT30;40911;51.552;9.874;2023-03-12T09:10:59;1.82;81.46
13796;SHT30;40911;51.552;9.874;2023-03-12T09:13:22;1.85;81.13
13796;SHT30;40911;51.552;9.874;2023-03-12T09:15:43;1.96;80.71
13796;SHT30;40911;51.552;9.874;2023-03-12T09:18:05;2.00;79.71
13796;SHT30;40911;51.552;9.874;2023-03-12T09:20:26;2.13;79.88
13796;SHT30;40911;51.552;9.874;2023-03-12T09:22:48;2.21;79.79
13796;SHT30;40911;51.552;9.874;2023-03-12T09:25:11;2.13;79.38
13796;SHT30;40911;51.552;9.874;2023-03-12T09:27:35;2.26;80.00
13796;SHT30;40911;51.552;9.874;2023-03-12T09:29:56;2.31;80.00
13796;SHT30;40911;51.552;9.874;2023-03-12T09:32:18;2.24;79.69
13796;SHT30;40911;51.552;9.874;2023-03-12T09:34:40;2.35;79.06
13796;SHT30;40911;51.552;9.874;2023-03-12T09:37:02;2.30;79.44
13796;SHT30;40911;51.552;9.874;2023-03-12T09:39:24;2.37;79.21
13796;SHT30;40911;51.552;9.874;2023-03-12T09:41:47;2.56;78.34
13796;SHT30;40911;51.552;9.874;2023-03-12T09:44:15;2.85;78.76
13796;SHT30;40911;51.552;9.874;2023-03-12T09:46:42;2.73;78.18
13796;SHT30;40911;51.552;9.874;2023-03-12T09:49:16;2.89;78.23
13796;SHT30;40911;51.552;9.874;2023-03-12T09:51:42;2.90;77.72
13796;SHT30;40911;51.552;9.874;2023-03-12T09:54:06;2.92;77.06
13796;SHT30;40911;51.552;9.874;2023-03-12T09:56:32;2.97;76.60
13796;SHT30;40911;51.552;9.874;2023-03-12T09:58:55;3.03;76.79
13796;SHT30;40911;51.552;9.874;2023-03-12T10:01:35;3.00;76.61
13796;SHT30;40911;51.552;9.874;2023-03-12T10:04:11;3.04;76.67
13796;SHT30;40911;51.552;9.874;2023-03-12T10:06:36;3.01;76.28
13796;SHT30;40911;51.552;9.874;2023-03-12T10:09:09;2.96;76.01
13796;SHT30;40911;51.552;9.874;2023-03-12T10:11:43;3.06;77.45
13796;SHT30;40911;51.552;9.874;2023-03-12T10:14:19;3.13;77.41
13796;SHT30;40911;51.552;9.874;2023-03-12T10:16:50;2.94;77.59
13796;SHT30;40911;51.552;9.874;2023-03-12T10:19:27;3.14;77.83
13796;SHT30;40911;51.552;9.874;2023-03-12T10:21:54;3.18;77.76
13796;SHT30;40911;51.552;9.874;2023-03-12T10:24:29;3.44;77.84
13796;SHT30;40911;51.552;9.874;2023-03-12T10:26:55;3.11;77.82
13796;SHT30;40911;51.552;9.874;2023-03-12T10:29:21;3.11;78.60
13796;SHT30;40911;51.552;9.874;2023-03-12T10:31:51;3.14;79.45
13796;SHT30;40911;51.552;9.874;2023-03-12T10:34:17;3.06;79.98
13796;SHT30;40911;51.552;9.874;2023-03-12T10:36:41;3.10;80.58
13796;SHT30;40911;51.552;9.874;2023-03-12T10:39:03;3.00;80.55
13796;SHT30;40911;51.552;9.874;2023-03-12T10:41:27;3.00;81.09
13796;SHT30;40911;51.552;9.874;2023-03-12T10:43:49;2.93;81.80
13796;SHT30;40911;51.552;9.874;2023-03-12T10:49:22;2.99;83.31
13796;SHT30;40911;51.552;9.874;2023-03-12T10:51:53;2.69;84.26
13796;SHT30;40911;51.552;9.874;2023-03-12T10:54:20;2.73;85.41
13796;SHT30;40911;51.552;9.874;2023-03-12T10:56:48;2.82;85.28
13796;SHT30;40911;51.552;9.874;2023-03-12T10:59:19;2.76;86.30
13796;SHT30;40911;51.552;9.874;2023-03-12T11:01:46;2.73;87.34
13796;SHT30;40911;51.552;9.874;2023-03-12T11:04:16;2.65;87.92
13796;SHT30;40911;51.552;9.874;2023-03-12T11:06:38;2.68;88.86
13796;SHT30;40911;51.552;9.874;2023-03-12T11:09:04;2.38;89.85
13796;SHT30;40911;51.552;9.874;2023-03-12T11:11:30;2.41;91.13
13796;SHT30;40911;51.552;9.874;2023-03-12T11:14:05;2.69;91.63
13796;SHT30;40911;51.552;9.874;2023-03-12T11:16:27;2.72;91.66
13796;SHT30;40911;51.552;9.874;2023-03-12T11:18:54;2.62;92.22
13796;SHT30;40911;51.552;9.874;2023-03-12T11:21:18;2.59;92.88
13796;SHT30;40911;51.552;9.874;2023-03-12T11:23:41;2.41;93.13
13796;SHT30;40911;51.552;9.874;2023-03-12T11:26:09;2.45;93.47
13796;SHT30;40911;51.552;9.874;2023-03-12T11:28:36;2.20;93.78
13796;SHT30;40911;51.552;9.874;2023-03-12T11:30:59;2.30;94.19
13796;SHT30;40911;51.552;9.874;2023-03-12T11:33:21;2.44;93.65
13796;SHT30;40911;51.552;9.874;2023-03-12T11:35:50;2.37;93.67
13796;SHT30;40911;51.552;9.874;2023-03-12T11:38:16;2.49;93.50
13796;SHT30;40911;51.552;9.874;2023-03-12T11:40:51;2.38;93.45
13796;SHT30;40911;51.552;9.874;2023-03-12T11:43:27;2.45;93.81
13796;SHT30;40911;51.552;9.874;2023-03-12T11:46:10;2.47;93.82
13796;SHT30;40911;51.552;9.874;2023-03-12T11:48:38;2.44;94.32
13796;SHT30;40911;51.552;9.874;2023-03-12T11:51:14;2.42;94.18
13796;SHT30;40911;51.552;9.874;2023-03-12T11:54:05;2.37;94.15
13796;SHT30;40911;51.552;9.874;2023-03-12T11:56:33;2.45;94.55
13796;SHT30;40911;51.552;9.874;2023-03-12T11:59:13;2.41;94.46
13796;SHT30;40911;51.552;9.874;2023-03-12T12:01:48;2.61;94.47
13796;SHT30;40911;51.552;9.874;2023-03-12T12:04:25;2.48;94.92
13796;SHT30;40911;51.552;9.874;2023-03-12T12:06:59;2.31;95.03
13796;SHT30;40911;51.552;9.874;2023-03-12T12:09:30;2.48;94.99
13796;SHT30;40911;51.552;9.874;2023-03-12T12:12:05;2.45;94.94
13796;SHT30;40911;51.552;9.874;2023-03-12T12:14:43;2.41;95.31
13796;SHT30;40911;51.552;9.874;2023-03-12T12:17:21;2.35;95.47
13796;SHT30;40911;51.552;9.874;2023-03-12T12:19:58;2.37;95.43
13796;SHT30;40911;51.552;9.874;2023-03-12T12:22:34;2.30;95.50
13796;SHT30;40911;51.552;9.874;2023-03-12T12:25:17;2.28;96.29
13796;SHT30;40911;51.552;9.874;2023-03-12T12:27:43;2.28;96.19
13796;SHT30;40911;51.552;9.874;2023-03-12T12:30:17;2.38;96.08
13796;SHT30;40911;51.552;9.874;2023-03-12T12:33:02;2.52;97.55
13796;SHT30;40911;51.552;9.874;2023-03-12T12:35:29;2.48;97.51
13796;SHT30;40911;51.552;9.874;2023-03-12T12:37:57;2.54;96.73
13796;SHT30;40911;51.552;9.874;2023-03-12T12:40:22;2.44;96.82
13796;SHT30;40911;51.552;9.874;2023-03-12T12:42:55;2.54;97.94
13796;SHT30;40911;51.552;9.874;2023-03-12T12:45:20;2.58;96.50
13796;SHT30;40911;51.552;9.874;2023-03-12T12:47:45;2.55;96.65
13796;SHT30;40911;51.552;9.874;2023-03-12T12:50:13;2.52;96.74
13796;SHT30;40911;51.552;9.874;2023-03-12T12:52:36;2.61;96.55
13796;SHT30;40911;51.552;9.874;2023-03-12T12:55:05;2.61;96.96
13796;SHT30;40911;51.552;9.874;2023-03-12T12:57:36;2.71;97.16
13796;SHT30;40911;51.552;9.874;2023-03-12T13:00:12;2.68;96.84
13796;SHT30;40911;51.552;9.874;2023-03-12T13:02:37;2.65;97.08
13796;SHT30;40911;51.552;9.874;2023-03-12T13:05:00;2.55;97.27
13796;SHT30;40911;51.552;9.874;2023-03-12T13:07:31;2.61;97.32
13796;SHT30;40911;51.552;9.874;2023-03-12T13:09:54;2.71;97.46
13796;SHT30;40911;51.552;9.874;2023-03-12T13:12:24;2.72;97.45
13796;SHT30;40911;51.552;9.874;2023-03-12T13:14:48;2.69;97.59
13796;SHT30;40911;51.552;9.874;2023-03-12T13:17:28;2.79;97.86
13796;SHT30;40911;51.552;9.874;2023-03-12T13:19:53;2.66;98.14
13796;SHT30;40911;51.552;9.874;2023-03-12T13:22:26;2.71;98.12
13796;SHT30;40911;51.552;9.874;2023-03-12T13:24:56;2.80;97.84
13796;SHT30;40911;51.552;9.874;2023-03-12T13:27:24;2.77;98.07
13796;SHT30;40911;51.552;9.874;2023-03-12T13:29:49;2.82;98.08
13796;SHT30;40911;51.552;9.874;2023-03-12T13:33:04;2.97;98.12
13796;SHT30;40911;51.552;9.874;2023-03-12T13:35:32;2.96;98.10
13796;SHT30;40911;51.552;9.874;2023-03-12T13:38:05;3.06;98.24
13796;SHT30;40911;51.552;9.874;2023-03-12T13:40:52;3.06;98.50
13796;SHT30;40911;51.552;9.874;2023-03-12T13:46:07;3.13;98.15
13796;SHT30;40911;51.552;9.874;2023-03-12T13:48:43;3.13;98.15
13796;SHT30;40911;51.552;9.874;2023-03-12T13:51:11;3.21;98.06
13796;SHT30;40911;51.552;9.874;2023-03-12T13:53:34;3.27;97.92
13796;SHT30;40911;51.552;9.874;2023-03-12T13:56:02;3.42;98.12
13796;SHT30;40911;51.552;9.874;2023-03-12T13:58:26;3.35;97.85
13796;SHT30;40911;51.552;9.874;2023-03-12T14:00:50;3.50;97.85
13796;SHT30;40911;51.552;9.874;2023-03-12T14:03:17;3.55;97.56
13796;SHT30;40911;51.552;9.874;2023-03-12T14:05:48;3.51;97.60
13796;SHT30;40911;51.552;9.874;2023-03-12T14:08:19;3.61;97.58
13796;SHT30;40911;51.552;9.874;2023-03-12T14:11:02;3.61;97.53
13796;SHT30;40911;51.552;9.874;2023-03-12T14:16:23;3.66;97.46
13796;SHT30;40911;51.552;9.874;2023-03-12T14:18:47;3.66;97.15
13796;SHT30;40911;51.552;9.874;2023-03-12T14:21:13;3.73;97.04
13796;SHT30;40911;51.552;9.874;2023-03-12T14:23:38;3.76;97.04
13796;SHT30;40911;51.552;9.874;2023-03-12T14:26:01;3.78;97.17
13796;SHT30;40911;51.552;9.874;2023-03-12T14:28:24;3.85;96.88
13796;SHT30;40911;51.552;9.874;2023-03-12T14:30:55;3.94;97.20
13796;SHT30;40911;51.552;9.874;2023-03-12T14:33:18;3.94;97.08
13796;SHT30;40911;51.552;9.874;2023-03-12T14:35:44;3.99;97.17
13796;SHT30;40911;51.552;9.874;2023-03-12T14:38:14;4.07;96.61
13796;SHT30;40911;51.552;9.874;2023-03-12T14:40:40;4.14;96.73
13796;SHT30;40911;51.552;9.874;2023-03-12T14:43:18;4.21;96.42
13796;SHT30;40911;51.552;9.874;2023-03-12T14:45:41;4.28;96.07
13796;SHT30;40911;51.552;9.874;2023-03-12T14:48:04;4.22;96.03
13796;SHT30;40911;51.552;9.874;2023-03-12T14:50:28;4.27;95.84
13796;SHT30;40911;51.552;9.874;2023-03-12T14:52:50;4.28;95.95
13796;SHT30;40911;51.552;9.874;2023-03-12T14:55:14;4.34;95.78
13796;SHT30;40911;51.552;9.874;2023-03-12T14:57:37;4.39;95.73
13796;SHT30;40911;51.552;9.874;2023-03-12T15:00:00;4.47;95.41
13796;SHT30;40911;51.552;9.874;2023-03-12T15:02:23;4.57;95.20
13796;SHT30;40911;51.552;9.874;2023-03-12T15:04:47;4.52;95.26
13796;SHT30;40911;51.552;9.874;2023-03-12T15:07:10;4.59;95.19
13796;SHT30;40911;51.552;9.874;2023-03-12T15:09:34;4.72;94.90
13796;SHT30;40911;51.552;9.874;2023-03-12T15:11:58;4.80;94.95
13796;SHT30;40911;51.552;9.874;2023-03-12T15:14:22;4.71;95.45
13796;SHT30;40911;51.552;9.874;2023-03-12T15:16:44;4.80;94.96
13796;SHT30;40911;51.552;9.874;2023-03-12T15:19:11;4.82;94.90
13796;SHT30;40911;51.552;9.874;2023-03-12T15:21:35;4.92;94.59
13796;SHT30;40911;51.552;9.874;2023-03-12T15:23:56;4.93;94.93
13796;SHT30;40911;51.552;9.874;2023-03-12T15:26:27;5.07;94.01
13796;SHT30;40911;51.552;9.874;2023-03-12T15:28:54;5.10;94.49
13796;SHT30;40911;51.552;9.874;2023-03-12T15:31:16;5.07;94.29
13796;SHT30;40911;51.552;9.874;2023-03-12T15:33:38;5.10;94.39